createdAt,value
2023-01-09T00:01:52.097Z,3.06
2023-01-09T00:06:53.311Z,3.07
2023-01-09T00:11:55.087Z,3.04
2023-01-09T00:16:56.996Z,3.01
2023-01-09T00:21:58.368Z,3.00
2023-01-09T00:26:59.598Z,2.99
2023-01-09T00:32:00.940Z,3.03
2023-01-09T00:37:02.984Z,3.07
2023-01-09T00:42:06.098Z,3.07
2023-01-09T00:47:13.687Z,3.07
2023-01-09T00:52:15.735Z,3.07
2023-01-09T00:57:17.311Z,3.07
2023-01-09T01:02:18.910Z,3.05
2023-01-09T01:07:38.953Z,3.02
2023-01-09T01:12:40.181Z,3.02
2023-01-09T01:17:42.212Z,3.04
2023-01-09T01:22:43.820Z,3.05
2023-01-09T01:27:45.881Z,3.09
2023-01-09T01:32:47.175Z,3.11
2023-01-09T01:37:49.130Z,3.13
2023-01-09T01:42:53.076Z,3.14
2023-01-09T01:47:58.551Z,3.14
2023-01-09T01:53:06.449Z,3.14
2023-01-09T01:58:10.658Z,3.17
2023-01-09T02:03:17.008Z,3.16
2023-01-09T02:08:19.199Z,3.14
2023-01-09T02:13:20.839Z,3.16
2023-01-09T02:18:45.744Z,3.17
2023-01-09T02:24:04.941Z,3.20
2023-01-09T02:29:42.107Z,3.23
2023-01-09T02:34:49.727Z,3.21
2023-01-09T02:39:55.507Z,3.18
2023-01-09T02:44:56.753Z,3.14
2023-01-09T02:50:03.149Z,3.12
2023-01-09T02:55:26.026Z,3.13
2023-01-09T03:00:33.898Z,3.14
2023-01-09T03:05:43.080Z,3.19
2023-01-09T03:10:52.375Z,3.23
2023-01-09T03:15:57.055Z,3.25
2023-01-09T03:20:58.351Z,3.27
2023-01-09T03:25:59.912Z,3.30
2023-01-09T03:31:01.497Z,3.33
2023-01-09T03:36:03.566Z,3.35
2023-01-09T03:41:05.167Z,3.37
2023-01-09T03:46:06.635Z,3.36
2023-01-09T03:51:10.107Z,3.35
2023-01-09T03:56:11.311Z,3.32
2023-01-09T04:01:12.955Z,3.30
2023-01-09T04:06:14.431Z,3.31
2023-01-09T04:11:17.445Z,3.34
2023-01-09T04:16:18.870Z,3.39
2023-01-09T04:21:20.332Z,3.42
2023-01-09T04:26:21.683Z,3.44
2023-01-09T04:31:23.345Z,3.47
2023-01-09T04:36:24.601Z,3.48
2023-01-09T04:41:44.857Z,3.46
2023-01-09T04:46:46.407Z,3.44
2023-01-09T04:51:48.090Z,3.42
2023-01-09T04:56:49.466Z,3.43
2023-01-09T05:01:52.009Z,3.44
2023-01-09T05:06:53.639Z,3.46
2023-01-09T05:11:54.902Z,3.43
2023-01-09T05:16:56.247Z,3.44
2023-01-09T05:21:57.732Z,3.45
2023-01-09T05:27:01.856Z,3.49
2023-01-09T05:32:04.225Z,3.52
2023-01-09T05:37:05.603Z,3.53
2023-01-09T05:42:06.972Z,3.55
2023-01-09T05:47:08.265Z,3.56
2023-01-09T05:52:09.541Z,3.59
2023-01-09T05:57:10.786Z,3.61
2023-01-09T06:02:12.089Z,3.63
2023-01-09T06:07:18.025Z,3.66
2023-01-09T06:12:21.280Z,3.67
2023-01-09T06:17:22.529Z,3.67
2023-01-09T06:22:23.902Z,3.66
2023-01-09T06:27:25.222Z,3.63
2023-01-09T06:32:26.520Z,3.60
2023-01-09T06:37:27.961Z,3.62
2023-01-09T06:42:29.457Z,3.62
2023-01-09T06:47:30.709Z,3.62
2023-01-09T06:52:32.080Z,3.61
2023-01-09T06:57:33.879Z,3.63
2023-01-09T07:02:35.302Z,3.63
2023-01-09T07:07:39.019Z,3.62
2023-01-09T07:12:40.294Z,3.63
2023-01-09T07:17:41.584Z,3.65
2023-01-09T07:22:43.612Z,3.66
2023-01-09T07:27:44.925Z,3.69
2023-01-09T07:32:46.330Z,3.73
2023-01-09T07:37:47.896Z,3.79
2023-01-09T07:42:54.535Z,3.82
2023-01-09T07:47:55.857Z,3.87
2023-01-09T07:52:57.108Z,3.92
2023-01-09T07:57:58.358Z,3.94
2023-01-09T08:02:59.666Z,3.96
2023-01-09T08:08:01.243Z,3.99
2023-01-09T08:13:02.930Z,3.98
2023-01-09T08:18:04.275Z,4.00
2023-01-09T08:23:05.537Z,4.03
2023-01-09T08:28:08.543Z,4.10
2023-01-09T08:33:09.825Z,4.15
2023-01-09T08:38:11.165Z,4.20
2023-01-09T08:43:31.097Z,4.25
2023-01-09T08:48:32.389Z,4.30
2023-01-09T08:53:33.824Z,4.36
2023-01-09T08:58:35.158Z,4.41
2023-01-09T09:03:36.446Z,4.46
2023-01-09T09:08:37.864Z,4.49
2023-01-09T09:13:39.087Z,4.56
2023-01-09T09:18:40.580Z,4.59
2023-01-09T09:23:43.461Z,4.62
2023-01-09T09:28:44.831Z,4.65
2023-01-09T09:33:46.136Z,4.67
2023-01-09T09:38:47.484Z,4.70
2023-01-09T09:44:13.496Z,4.74
2023-01-09T09:49:23.118Z,4.76
2023-01-09T09:54:34.343Z,4.79
2023-01-09T09:59:40.140Z,4.83
2023-01-09T10:04:49.180Z,4.87
2023-01-09T10:09:59.103Z,4.88
2023-01-09T10:15:06.544Z,4.88
2023-01-09T10:20:29.432Z,4.88
2023-01-09T10:25:44.199Z,4.88
2023-01-09T10:31:08.167Z,4.87
2023-01-09T10:36:41.258Z,4.84
2023-01-09T10:42:24.805Z,4.84
2023-01-09T10:47:31.680Z,4.85
2023-01-09T10:52:36.604Z,4.85
2023-01-09T10:57:48.671Z,4.84
2023-01-09T11:02:51.941Z,4.83
2023-01-09T11:08:22.459Z,4.82
2023-01-09T11:13:28.478Z,4.80
2023-01-09T11:18:29.979Z,4.81
2023-01-09T11:23:32.561Z,4.82
2023-01-09T11:28:34.301Z,4.84
2023-01-09T11:33:42.121Z,4.82
2023-01-09T11:38:53.525Z,4.78
2023-01-09T11:43:57.858Z,4.73
2023-01-09T11:49:01.139Z,4.72
2023-01-09T11:54:29.872Z,4.74
2023-01-09T11:59:31.344Z,4.72
2023-01-09T12:04:38.882Z,4.67
2023-01-09T12:10:02.472Z,4.59
2023-01-09T12:15:22.611Z,4.56
2023-01-09T12:21:02.543Z,4.55
2023-01-09T12:26:24.644Z,4.54
2023-01-09T12:31:47.966Z,4.56
2023-01-09T12:36:52.145Z,4.55
2023-01-09T12:42:19.415Z,4.51
2023-01-09T12:47:52.600Z,4.47
2023-01-09T12:53:18.705Z,4.45
2023-01-09T12:58:36.625Z,4.43
2023-01-09T13:03:44.939Z,4.43
2023-01-09T13:09:17.303Z,4.43
2023-01-09T13:14:23.899Z,4.41
2023-01-09T13:19:40.192Z,4.41
2023-01-09T13:25:17.416Z,4.42
2023-01-09T13:30:44.407Z,4.42
2023-01-09T13:36:04.940Z,4.35
2023-01-09T13:41:45.689Z,4.24
2023-01-09T13:46:54.398Z,4.10
2023-01-09T13:51:57.316Z,3.99
2023-01-09T13:57:17.565Z,3.92
2023-01-09T14:02:40.604Z,3.88
2023-01-09T14:07:48.684Z,3.83
2023-01-09T14:12:53.474Z,3.79
2023-01-09T14:18:03.687Z,3.78
2023-01-09T14:23:28.164Z,3.76
2023-01-09T14:28:33.889Z,3.75
2023-01-09T14:33:35.588Z,3.73
2023-01-09T14:38:48.484Z,3.71
2023-01-09T14:44:18.931Z,3.67
2023-01-09T14:49:48.036Z,3.65
2023-01-09T14:54:50.999Z,3.66
2023-01-09T15:00:16.664Z,3.70
2023-01-09T15:05:22.790Z,3.75
2023-01-09T15:10:45.296Z,3.79
2023-01-09T15:15:48.328Z,3.80
2023-01-09T15:21:01.040Z,3.78
2023-01-09T15:26:28.328Z,3.78
2023-01-09T15:31:30.118Z,3.78
2023-01-09T15:36:31.825Z,3.80
2023-01-09T15:41:51.858Z,3.79
2023-01-09T15:46:59.048Z,3.77
2023-01-09T15:52:01.758Z,3.76
2023-01-09T15:57:25.247Z,3.75
2023-01-09T16:02:45.657Z,3.73
2023-01-09T16:07:48.298Z,3.70
2023-01-09T16:12:51.922Z,3.68
2023-01-09T16:18:14.969Z,3.69
2023-01-09T16:23:37.918Z,3.71
2023-01-09T16:28:40.303Z,3.73
2023-01-09T16:33:49.120Z,3.74
2023-01-09T16:38:52.150Z,3.74
2023-01-09T16:43:53.536Z,3.75
2023-01-09T16:48:54.795Z,3.77
2023-01-09T16:53:56.168Z,3.79
2023-01-09T16:58:58.504Z,3.85
2023-01-09T17:03:59.833Z,3.89
2023-01-09T17:09:01.386Z,3.90
2023-01-09T17:14:03.290Z,3.93
2023-01-09T17:19:04.729Z,3.93
2023-01-09T17:24:24.983Z,3.96
2023-01-09T17:29:27.570Z,3.99
2023-01-09T17:34:29.056Z,4.02
2023-01-09T17:39:30.489Z,4.08
2023-01-09T17:44:31.936Z,4.10
2023-01-09T17:49:33.472Z,4.10
2023-01-09T17:54:34.887Z,4.12
2023-01-09T17:59:36.126Z,4.16
2023-01-09T18:04:38.401Z,4.18
2023-01-09T18:09:43.000Z,4.21
2023-01-09T18:14:44.279Z,4.27
2023-01-09T18:19:45.708Z,4.28
2023-01-09T18:24:46.971Z,4.30
2023-01-09T18:29:48.518Z,4.32
2023-01-09T18:34:49.896Z,4.33
2023-01-09T18:39:51.235Z,4.34
2023-01-09T18:44:52.679Z,4.37
2023-01-09T18:49:53.967Z,4.44
2023-01-09T18:54:55.274Z,4.49
2023-01-09T18:59:56.738Z,4.52
2023-01-09T19:04:58.123Z,4.50
2023-01-09T19:09:59.363Z,4.50
2023-01-09T19:15:00.700Z,4.52
2023-01-09T19:20:02.050Z,4.57
2023-01-09T19:25:04.234Z,4.61
2023-01-09T19:30:06.642Z,4.61
2023-01-09T19:35:08.630Z,4.62
2023-01-09T19:40:10.959Z,4.61
2023-01-09T19:45:12.605Z,4.59
2023-01-09T19:50:15.879Z,4.58
2023-01-09T19:55:17.195Z,4.58
2023-01-09T20:00:19.554Z,4.58
2023-01-09T20:05:21.301Z,4.60
2023-01-09T20:10:22.606Z,4.64
2023-01-09T20:15:23.862Z,4.66
2023-01-09T20:20:25.392Z,4.66
2023-01-09T20:25:26.711Z,4.64
2023-01-09T20:30:27.949Z,4.65
2023-01-09T20:35:30.805Z,4.66
2023-01-09T20:40:35.137Z,4.71
2023-01-09T20:45:36.550Z,4.76
2023-01-09T20:50:37.978Z,4.78
2023-01-09T20:55:39.298Z,4.78
2023-01-09T21:00:40.668Z,4.76
2023-01-09T21:05:42.912Z,4.77
2023-01-09T21:10:44.167Z,4.77
2023-01-09T21:15:45.433Z,4.78
2023-01-09T21:20:46.789Z,4.79
2023-01-09T21:25:48.084Z,4.80
2023-01-09T21:30:49.430Z,4.80
2023-01-09T21:35:52.988Z,4.85
2023-01-09T21:40:54.241Z,4.87
2023-01-09T21:46:15.307Z,4.89
2023-01-09T21:51:16.915Z,4.92
2023-01-09T21:56:18.277Z,4.94
2023-01-09T22:01:19.550Z,4.95
2023-01-09T22:06:20.958Z,4.97
2023-01-09T22:11:22.531Z,4.96
2023-01-09T22:16:25.860Z,4.95
2023-01-09T22:21:27.311Z,4.94
2023-01-09T22:26:29.073Z,4.94
2023-01-09T22:31:32.103Z,4.92
2023-01-09T22:36:33.620Z,4.91
2023-01-09T22:41:35.092Z,4.93
2023-01-09T22:46:36.426Z,4.98
2023-01-09T22:51:37.675Z,4.98
2023-01-09T22:56:38.923Z,5.00
2023-01-09T23:01:40.414Z,5.00
2023-01-09T23:06:42.587Z,4.98
2023-01-09T23:12:02.386Z,4.97
2023-01-09T23:17:05.536Z,4.96
2023-01-09T23:22:06.926Z,4.92
2023-01-09T23:27:08.199Z,4.88
2023-01-09T23:32:11.328Z,4.87
2023-01-09T23:37:12.485Z,4.88
2023-01-09T23:42:32.196Z,4.87
2023-01-09T23:47:33.785Z,4.88
2023-01-09T23:52:35.036Z,4.87
2023-01-09T23:57:36.241Z,4.87
